sensor_id;sensor_type;location;lat;lon;timestamp;temperature;humidity
22426;DHT22;11380;50.822;15.790;2022-08-04T00:01:52;17.70;1.00
22426;DHT22;11380;50.822;15.790;2022-08-04T00:07:07;17.60;1.00
22426;DHT22;11380;50.822;15.790;2022-08-04T00:12:16;17.70;1.00
22426;DHT22;11380;50.822;15.790;2022-08-04T00:17:25;17.80;1.00
22426;DHT22;11380;50.822;15.790;2022-08-04T00:22:31;17.70;1.00
22426;DHT22;11380;50.822;15.790;2022-08-04T00:27:38;17.40;1.00
22426;DHT22;11380;50.822;15.790;2022-08-04T00:32:44;17.70;1.00
22426;DHT22;11380;50.822;15.790;2022-08-04T00:37:50;17.40;1.00
22426;DHT22;11380;50.822;15.790;2022-08-04T00:43:14;17.30;1.00
22426;DHT22;11380;50.822;15.790;2022-08-04T00:48:32;17.70;1.00
22426;DHT22;11380;50.822;15.790;2022-08-04T01:10:09;17.40;1.00
22426;DHT22;11380;50.822;15.790;2022-08-04T01:15:32;17.40;1.00
22426;DHT22;11380;50.822;15.790;2022-08-04T01:31:49;17.30;1.00
22426;DHT22;11380;50.822;15.790;2022-08-04T01:37:10;17.40;1.00
22426;DHT22;11380;50.822;15.790;2022-08-04T01:42:17;17.00;1.00
22426;DHT22;11380;50.822;15.790;2022-08-04T01:47:27;17.00;1.00
22426;DHT22;11380;50.822;15.790;2022-08-04T01:52:34;17.00;1.00
22426;DHT22;11380;50.822;15.790;2022-08-04T01:57:47;17.00;1.00
22426;DHT22;11380;50.822;15.790;2022-08-04T02:02:53;17.00;1.00
22426;DHT22;11380;50.822;15.790;2022-08-04T02:08:12;17.10;1.00
22426;DHT22;11380;50.822;15.790;2022-08-04T02:18:41;16.50;1.00
22426;DHT22;11380;50.822;15.790;2022-08-04T02:23:49;16.30;1.00
22426;DHT22;11380;50.822;15.790;2022-08-04T02:29:14;16.60;1.00
22426;DHT22;11380;50.822;15.790;2022-08-04T02:34:20;16.60;1.00
22426;DHT22;11380;50.822;15.790;2022-08-04T02:39:27;16.70;1.00
22426;DHT22;11380;50.822;15.790;2022-08-04T02:44:34;16.40;1.00
22426;DHT22;11380;50.822;15.790;2022-08-04T02:49:41;16.30;1.00
22426;DHT22;11380;50.822;15.790;2022-08-04T02:54:56;16.20;1.00
22426;DHT22;11380;50.822;15.790;2022-08-04T03:00:08;16.20;1.00
22426;DHT22;11380;50.822;15.790;2022-08-04T03:05:19;16.20;1.00
22426;DHT22;11380;50.822;15.790;2022-08-04T03:10:35;16.30;1.00
22426;DHT22;11380;50.822;15.790;2022-08-04T03:26:28;16.30;1.00
22426;DHT22;11380;50.822;15.790;2022-08-04T03:37:36;16.40;1.00
22426;DHT22;11380;50.822;15.790;2022-08-04T03:42:58;16.20;1.00
22426;DHT22;11380;50.822;15.790;2022-08-04T03:53:22;16.50;1.00
22426;DHT22;11380;50.822;15.790;2022-08-04T04:15:00;16.80;1.00
22426;DHT22;11380;50.822;15.790;2022-08-04T04:36:34;17.50;1.00
22426;DHT22;11380;50.822;15.790;2022-08-04T04:52:35;18.00;1.00
22426;DHT22;11380;50.822;15.790;2022-08-04T04:57:37;18.40;1.00
22426;DHT22;11380;50.822;15.790;2022-08-04T05:03:15;18.60;1.00
22426;DHT22;11380;50.822;15.790;2022-08-04T05:08:40;19.00;1.00
22426;DHT22;11380;50.822;15.790;2022-08-04T05:13:51;19.40;1.00
22426;DHT22;11380;50.822;15.790;2022-08-04T05:24:11;20.20;1.00
22426;DHT22;11380;50.822;15.790;2022-08-04T05:29:26;20.20;1.00
22426;DHT22;11380;50.822;15.790;2022-08-04T05:34:39;20.70;1.00
22426;DHT22;11380;50.822;15.790;2022-08-04T05:39:56;20.90;1.00
22426;DHT22;11380;50.822;15.790;2022-08-04T05:44:58;21.20;1.00
22426;DHT22;11380;50.822;15.790;2022-08-04T05:50:05;21.70;1.00
22426;DHT22;11380;50.822;15.790;2022-08-04T05:55:12;21.90;1.00
22426;DHT22;11380;50.822;15.790;2022-08-04T06:00:20;22.40;1.00
22426;DHT22;11380;50.822;15.790;2022-08-04T06:05:30;22.70;1.00
22426;DHT22;11380;50.822;15.790;2022-08-04T06:10:39;23.00;99.90
22426;DHT22;11380;50.822;15.790;2022-08-04T06:15:45;23.50;99.90
22426;DHT22;11380;50.822;15.790;2022-08-04T06:20:53;23.20;1.00
22426;DHT22;11380;50.822;15.790;2022-08-04T06:26:04;23.30;1.00
22426;DHT22;11380;50.822;15.790;2022-08-04T06:31:12;23.70;1.00
22426;DHT22;11380;50.822;15.790;2022-08-04T06:36:21;24.30;1.00
22426;DHT22;11380;50.822;15.790;2022-08-04T06:41:28;24.20;1.00
22426;DHT22;11380;50.822;15.790;2022-08-04T06:46:36;25.10;99.90
22426;DHT22;11380;50.822;15.790;2022-08-04T06:51:43;25.30;1.00
22426;DHT22;11380;50.822;15.790;2022-08-04T06:56:52;25.20;1.00
22426;DHT22;11380;50.822;15.790;2022-08-04T07:01:59;25.80;99.90
22426;DHT22;11380;50.822;15.790;2022-08-04T07:07:06;25.90;99.90
22426;DHT22;11380;50.822;15.790;2022-08-04T07:12:12;25.80;99.90
22426;DHT22;11380;50.822;15.790;2022-08-04T07:17:20;26.20;99.90
22426;DHT22;11380;50.822;15.790;2022-08-04T07:22:28;26.60;99.90
22426;DHT22;11380;50.822;15.790;2022-08-04T07:27:33;27.00;99.90
22426;DHT22;11380;50.822;15.790;2022-08-04T07:32:41;27.30;1.00
22426;DHT22;11380;50.822;15.790;2022-08-04T07:37:49;27.80;1.00
22426;DHT22;11380;50.822;15.790;2022-08-04T07:42:53;27.60;99.90
22426;DHT22;11380;50.822;15.790;2022-08-04T07:48:00;28.20;1.00
22426;DHT22;11380;50.822;15.790;2022-08-04T07:53:08;28.40;99.90
22426;DHT22;11380;50.822;15.790;2022-08-04T07:58:17;28.70;1.00
22426;DHT22;11380;50.822;15.790;2022-08-04T08:03:23;29.20;1.00
22426;DHT22;11380;50.822;15.790;2022-08-04T08:08:29;29.10;99.90
22426;DHT22;11380;50.822;15.790;2022-08-04T08:13:36;29.40;99.90
22426;DHT22;11380;50.822;15.790;2022-08-04T08:18:42;29.60;99.90
22426;DHT22;11380;50.822;15.790;2022-08-04T08:23:50;29.70;99.90
22426;DHT22;11380;50.822;15.790;2022-08-04T08:28:56;30.00;99.90
22426;DHT22;11380;50.822;15.790;2022-08-04T08:34:01;30.10;5.80
22426;DHT22;11380;50.822;15.790;2022-08-04T08:39:23;29.90;1.00
22426;DHT22;11380;50.822;15.790;2022-08-04T08:50:02;30.70;1.00
22426;DHT22;11380;50.822;15.790;2022-08-04T08:55:34;30.90;1.00
22426;DHT22;11380;50.822;15.790;2022-08-04T09:00:53;30.40;99.90
22426;DHT22;11380;50.822;15.790;2022-08-04T09:11:22;30.50;99.90
22426;DHT22;11380;50.822;15.790;2022-08-04T09:16:44;31.00;99.90
22426;DHT22;11380;50.822;15.790;2022-08-04T09:22:00;31.20;99.90
22426;DHT22;11380;50.822;15.790;2022-08-04T09:27:14;31.80;99.90
22426;DHT22;11380;50.822;15.790;2022-08-04T09:38:18;31.20;99.90
22426;DHT22;11380;50.822;15.790;2022-08-04T09:43:47;31.50;99.90
22426;DHT22;11380;50.822;15.790;2022-08-04T09:49:01;31.80;99.90
22426;DHT22;11380;50.822;15.790;2022-08-04T09:54:13;31.90;99.90
22426;DHT22;11380;50.822;15.790;2022-08-04T09:59:26;31.00;99.90
22426;DHT22;11380;50.822;15.790;2022-08-04T10:04:32;31.40;99.90
22426;DHT22;11380;50.822;15.790;2022-08-04T10:15:19;32.50;99.90
22426;DHT22;11380;50.822;15.790;2022-08-04T10:21:00;32.00;23.10
22426;DHT22;11380;50.822;15.790;2022-08-04T10:31:25;32.60;12.50
22426;DHT22;11380;50.822;15.790;2022-08-04T10:36:38;32.70;1.10
22426;DHT22;11380;50.822;15.790;2022-08-04T10:41:53;31.60;5.50
22426;DHT22;11380;50.822;15.790;2022-08-04T10:47:10;32.20;99.90
22426;DHT22;11380;50.822;15.790;2022-08-04T10:52:32;33.20;99.90
22426;DHT22;11380;50.822;15.790;2022-08-04T10:57:40;32.80;99.90
22426;DHT22;11380;50.822;15.790;2022-08-04T11:07:55;32.50;99.90
22426;DHT22;11380;50.822;15.790;2022-08-04T11:13:02;32.80;99.90
22426;DHT22;11380;50.822;15.790;2022-08-04T11:18:14;33.10;99.90
22426;DHT22;11380;50.822;15.790;2022-08-04T11:23:26;33.00;99.90
22426;DHT22;11380;50.822;15.790;2022-08-04T11:28:36;32.30;99.90
22426;DHT22;11380;50.822;15.790;2022-08-04T11:33:55;32.90;99.90
22426;DHT22;11380;50.822;15.790;2022-08-04T11:39:24;32.70;96.90
22426;DHT22;11380;50.822;15.790;2022-08-04T11:44:40;32.40;99.90
22426;DHT22;11380;50.822;15.790;2022-08-04T11:49:47;32.80;99.90
22426;DHT22;11380;50.822;15.790;2022-08-04T11:54:55;32.60;99.90
22426;DHT22;11380;50.822;15.790;2022-08-04T12:00:07;32.90;99.90
22426;DHT22;11380;50.822;15.790;2022-08-04T12:05:16;32.90;99.90
22426;DHT22;11380;50.822;15.790;2022-08-04T12:10:58;33.00;99.90
22426;DHT22;11380;50.822;15.790;2022-08-04T12:16:34;32.30;51.80
22426;DHT22;11380;50.822;15.790;2022-08-04T12:21:44;32.10;41.70
22426;DHT22;11380;50.822;15.790;2022-08-04T12:26:52;32.10;1.00
22426;DHT22;11380;50.822;15.790;2022-08-04T12:32:28;32.10;1.00
22426;DHT22;11380;50.822;15.790;2022-08-04T12:43:00;32.10;1.00
22426;DHT22;11380;50.822;15.790;2022-08-04T12:48:04;32.90;1.00
22426;DHT22;11380;50.822;15.790;2022-08-04T12:53:12;32.80;1.00
22426;DHT22;11380;50.822;15.790;2022-08-04T12:58:27;32.80;1.00
22426;DHT22;11380;50.822;15.790;2022-08-04T13:03:36;32.70;1.00
22426;DHT22;11380;50.822;15.790;2022-08-04T13:08:44;32.30;1.00
22426;DHT22;11380;50.822;15.790;2022-08-04T13:13:53;32.90;1.00
22426;DHT22;11380;50.822;15.790;2022-08-04T13:19:03;32.50;1.00
22426;DHT22;11380;50.822;15.790;2022-08-04T13:24:14;32.50;1.00
22426;DHT22;11380;50.822;15.790;2022-08-04T13:29:26;32.20;1.00
22426;DHT22;11380;50.822;15.790;2022-08-04T13:34:33;32.10;1.00
22426;DHT22;11380;50.822;15.790;2022-08-04T13:39:44;32.50;1.00
22426;DHT22;11380;50.822;15.790;2022-08-04T13:44:55;32.40;1.00
22426;DHT22;11380;50.822;15.790;2022-08-04T13:50:09;32.50;1.00
22426;DHT22;11380;50.822;15.790;2022-08-04T13:55:33;32.70;1.00
22426;DHT22;11380;50.822;15.790;2022-08-04T14:00:25;32.10;1.00
22426;DHT22;11380;50.822;15.790;2022-08-04T14:05:33;31.80;1.00
22426;DHT22;11380;50.822;15.790;2022-08-04T14:10:40;31.90;1.00
22426;DHT22;11380;50.822;15.790;2022-08-04T14:15:46;31.60;1.00
22426;DHT22;11380;50.822;15.790;2022-08-04T14:21:00;32.00;1.00
22426;DHT22;11380;50.822;15.790;2022-08-04T14:26:21;32.20;1.00
22426;DHT22;11380;50.822;15.790;2022-08-04T14:31:28;32.10;1.00
22426;DHT22;11380;50.822;15.790;2022-08-04T14:36:44;32.10;1.00
22426;DHT22;11380;50.822;15.790;2022-08-04T14:41:51;31.50;1.00
22426;DHT22;11380;50.822;15.790;2022-08-04T14:46:58;31.70;1.00
22426;DHT22;11380;50.822;15.790;2022-08-04T14:52:05;31.50;1.00
22426;DHT22;11380;50.822;15.790;2022-08-04T14:57:14;31.50;1.00
22426;DHT22;11380;50.822;15.790;2022-08-04T15:02:19;31.30;1.00
22426;DHT22;11380;50.822;15.790;2022-08-04T15:07:29;31.70;1.00
22426;DHT22;11380;50.822;15.790;2022-08-04T15:12:35;31.70;1.00
22426;DHT22;11380;50.822;15.790;2022-08-04T15:17:41;31.50;1.00
22426;DHT22;11380;50.822;15.790;2022-08-04T15:22:49;31.00;1.00
22426;DHT22;11380;50.822;15.790;2022-08-04T15:27:55;31.30;1.00
22426;DHT22;11380;50.822;15.790;2022-08-04T15:33:01;31.20;1.00
22426;DHT22;11380;50.822;15.790;2022-08-04T15:38:26;31.40;1.00
22426;DHT22;11380;50.822;15.790;2022-08-04T15:49:22;31.20;1.00
22426;DHT22;11380;50.822;15.790;2022-08-04T15:54:29;31.20;1.00
22426;DHT22;11380;50.822;15.790;2022-08-04T15:59:55;31.00;1.00
22426;DHT22;11380;50.822;15.790;2022-08-04T16:15:42;30.50;1.00
22426;DHT22;11380;50.822;15.790;2022-08-04T16:20:49;30.50;1.00
22426;DHT22;11380;50.822;15.790;2022-08-04T16:25:55;30.40;1.00
22426;DHT22;11380;50.822;15.790;2022-08-04T16:31:00;30.30;1.00
22426;DHT22;11380;50.822;15.790;2022-08-04T16:36:07;30.20;1.00
22426;DHT22;11380;50.822;15.790;2022-08-04T16:41:15;30.00;1.00
22426;DHT22;11380;50.822;15.790;2022-08-04T16:46:39;30.00;1.00
22426;DHT22;11380;50.822;15.790;2022-08-04T16:51:48;29.90;1.00
22426;DHT22;11380;50.822;15.790;2022-08-04T16:56:55;29.90;1.00
22426;DHT22;11380;50.822;15.790;2022-08-04T17:02:01;29.80;1.00
22426;DHT22;11380;50.822;15.790;2022-08-04T17:07:06;29.70;1.00
22426;DHT22;11380;50.822;15.790;2022-08-04T17:12:12;29.70;1.00
22426;DHT22;11380;50.822;15.790;2022-08-04T17:17:21;29.40;1.00
22426;DHT22;11380;50.822;15.790;2022-08-04T17:22:27;29.30;1.00
22426;DHT22;11380;50.822;15.790;2022-08-04T17:27:32;29.20;1.00
22426;DHT22;11380;50.822;15.790;2022-08-04T17:32:41;28.80;1.00
22426;DHT22;11380;50.822;15.790;2022-08-04T17:37:47;28.50;1.00
22426;DHT22;11380;50.822;15.790;2022-08-04T17:43:03;28.40;1.00
22426;DHT22;11380;50.822;15.790;2022-08-04T17:48:19;28.30;1.00
22426;DHT22;11380;50.822;15.790;2022-08-04T17:53:32;28.30;1.00
22426;DHT22;11380;50.822;15.790;2022-08-04T17:58:42;28.10;1.00
22426;DHT22;11380;50.822;15.790;2022-08-04T18:03:49;27.80;1.00
22426;DHT22;11380;50.822;15.790;2022-08-04T18:08:56;27.50;1.00
22426;DHT22;11380;50.822;15.790;2022-08-04T18:14:03;27.30;1.00
22426;DHT22;11380;50.822;15.790;2022-08-04T18:19:13;27.10;1.00
22426;DHT22;11380;50.822;15.790;2022-08-04T18:24:21;26.70;1.00
22426;DHT22;11380;50.822;15.790;2022-08-04T18:29:28;26.70;1.00
22426;DHT22;11380;50.822;15.790;2022-08-04T18:34:35;26.70;1.00
22426;DHT22;11380;50.822;15.790;2022-08-04T18:39:42;26.30;1.00
22426;DHT22;11380;50.822;15.790;2022-08-04T18:44:50;26.30;1.00
22426;DHT22;11380;50.822;15.790;2022-08-04T18:49:57;26.10;1.00
22426;DHT22;11380;50.822;15.790;2022-08-04T18:55:04;26.00;1.00
22426;DHT22;11380;50.822;15.790;2022-08-04T19:00:10;25.80;1.00
22426;DHT22;11380;50.822;15.790;2022-08-04T19:05:16;25.90;1.00
22426;DHT22;11380;50.822;15.790;2022-08-04T19:10:23;25.40;1.00
22426;DHT22;11380;50.822;15.790;2022-08-04T19:15:30;25.00;1.00
22426;DHT22;11380;50.822;15.790;2022-08-04T19:20:37;24.80;1.00
22426;DHT22;11380;50.822;15.790;2022-08-04T19:25:45;24.90;1.00
22426;DHT22;11380;50.822;15.790;2022-08-04T19:30:53;24.20;1.00
22426;DHT22;11380;50.822;15.790;2022-08-04T19:35:58;23.90;1.00
22426;DHT22;11380;50.822;15.790;2022-08-04T19:41:07;23.10;1.00
22426;DHT22;11380;50.822;15.790;2022-08-04T19:46:15;22.70;99.90
22426;DHT22;11380;50.822;15.790;2022-08-04T19:51:21;22.40;1.00
22426;DHT22;11380;50.822;15.790;2022-08-04T19:56:29;22.60;1.00
22426;DHT22;11380;50.822;15.790;2022-08-04T20:01:37;23.30;99.90
22426;DHT22;11380;50.822;15.790;2022-08-04T20:06:44;23.70;99.90
22426;DHT22;11380;50.822;15.790;2022-08-04T20:11:52;24.00;99.90
22426;DHT22;11380;50.822;15.790;2022-08-04T20:16:57;24.00;30.80
22426;DHT22;11380;50.822;15.790;2022-08-04T20:22:02;24.00;8.80
22426;DHT22;11380;50.822;15.790;2022-08-04T20:27:13;24.00;1.00
22426;DHT22;11380;50.822;15.790;2022-08-04T20:32:23;24.40;1.00
22426;DHT22;11380;50.822;15.790;2022-08-04T20:37:27;24.50;1.00
22426;DHT22;11380;50.822;15.790;2022-08-04T20:42:36;24.60;1.00
22426;DHT22;11380;50.822;15.790;2022-08-04T20:47:41;24.60;1.00
22426;DHT22;11380;50.822;15.790;2022-08-04T20:52:49;24.40;1.00
22426;DHT22;11380;50.822;15.790;2022-08-04T20:57:55;24.00;1.00
22426;DHT22;11380;50.822;15.790;2022-08-04T21:03:01;24.20;1.00
22426;DHT22;11380;50.822;15.790;2022-08-04T21:08:06;24.20;1.00
22426;DHT22;11380;50.822;15.790;2022-08-04T21:13:12;24.10;1.00
22426;DHT22;11380;50.822;15.790;2022-08-04T21:18:17;23.90;1.00
22426;DHT22;11380;50.822;15.790;2022-08-04T21:23:24;23.50;10.90
22426;DHT22;11380;50.822;15.790;2022-08-04T21:28:30;23.70;1.00
22426;DHT22;11380;50.822;15.790;2022-08-04T21:33:36;23.50;1.00
22426;DHT22;11380;50.822;15.790;2022-08-04T21:38:44;23.40;99.60
22426;DHT22;11380;50.822;15.790;2022-08-04T21:43:50;22.80;99.90
22426;DHT22;11380;50.822;15.790;2022-08-04T21:48:57;22.00;1.00
22426;DHT22;11380;50.822;15.790;2022-08-04T21:54:05;22.40;99.90
22426;DHT22;11380;50.822;15.790;2022-08-04T21:59:11;22.20;99.90
22426;DHT22;11380;50.822;15.790;2022-08-04T22:04:18;21.40;99.90
22426;DHT22;11380;50.822;15.790;2022-08-04T22:09:23;21.90;1.00
22426;DHT22;11380;50.822;15.790;2022-08-04T22:14:30;21.90;1.00
22426;DHT22;11380;50.822;15.790;2022-08-04T22:19:38;21.50;99.90
22426;DHT22;11380;50.822;15.790;2022-08-04T22:24:45;21.10;1.00
22426;DHT22;11380;50.822;15.790;2022-08-04T22:29:51;20.90;99.90
22426;DHT22;11380;50.822;15.790;2022-08-04T22:34:56;21.00;1.00
22426;DHT22;11380;50.822;15.790;2022-08-04T22:40:04;20.80;99.90
22426;DHT22;11380;50.822;15.790;2022-08-04T22:45:10;20.90;99.90
22426;DHT22;11380;50.822;15.790;2022-08-04T22:50:17;21.10;99.90
22426;DHT22;11380;50.822;15.790;2022-08-04T22:55:25;20.90;1.00
22426;DHT22;11380;50.822;15.790;2022-08-04T23:00:32;21.20;1.00
22426;DHT22;11380;50.822;15.790;2022-08-04T23:05:36;21.30;1.00
22426;DHT22;11380;50.822;15.790;2022-08-04T23:10:44;21.00;1.00
22426;DHT22;11380;50.822;15.790;2022-08-04T23:15:50;20.90;1.00
22426;DHT22;11380;50.822;15.790;2022-08-04T23:20:56;21.10;99.90
22426;DHT22;11380;50.822;15.790;2022-08-04T23:26:10;21.10;1.00
22426;DHT22;11380;50.822;15.790;2022-08-04T23:31:16;21.00;1.00
22426;DHT22;11380;50.822;15.790;2022-08-04T23:36:22;21.00;99.90
22426;DHT22;11380;50.822;15.790;2022-08-04T23:41:29;20.70;99.90
22426;DHT22;11380;50.822;15.790;2022-08-04T23:46:36;20.50;99.90
22426;DHT22;11380;50.822;15.790;2022-08-04T23:51:42;20.30;99.90
22426;DHT22;11380;50.822;15.790;2022-08-04T23:56:49;20.50;1.00
